Time;durP1;ratioP1;P1;durP2;ratioP2;P2;SDS_P1;SDS_P2;PMS_P1;PMS_P2;Temp;Humidity;BMP_temperature;BMP_pressure;BME280_temperature;BME280_humidity;BME280_pressure;Samples;Min_cycle;Max_cycle;Signal;HPM_P1;HPM_P2
2022/04/23 00:01:15;;;;;;;18.73;13.23;;;;;;;;;;5017667;28;20197;-65
2022/04/23 00:03:40;;;;;;;18.70;12.80;;;;;;;;;;5017910;28;20189;-65
2022/04/23 00:06:06;;;;;;;20.20;14.23;;;;;;;;;;5020731;28;20552;-66
2022/04/23 00:08:31;;;;;;;22.35;13.82;;;;;;;;;;5027534;28;20193;-66
2022/04/23 00:10:57;;;;;;;21.65;13.27;;;;;;;;;;5033814;28;20336;-65
2022/04/23 00:13:22;;;;;;;21.35;13.73;;;;;;;;;;5014593;28;20260;-66
2022/04/23 00:15:48;;;;;;;20.40;14.60;;;;;;;;;;5013860;28;20175;-66
2022/04/23 00:18:13;;;;;;;19.65;13.60;;;;;;;;;;5021629;28;20189;-65
2022/04/23 00:20:39;;;;;;;21.85;15.13;;;;;;;;;;5018488;28;20611;-66
2022/04/23 00:23:06;;;;;;;22.88;15.02;;;;;;;;;;5024335;28;20188;-65
2022/04/23 00:25:32;;;;;;;25.63;16.42;;;;;;;;;;5019794;28;20287;-65
2022/04/23 00:27:58;;;;;;;22.17;14.45;;;;;;;;;;5028842;28;20665;-66
2022/04/23 00:30:24;;;;;;;23.90;16.60;;;;;;;;;;5027995;28;20218;-66
2022/04/23 00:32:49;;;;;;;20.48;14.32;;;;;;;;;;5029343;28;20308;-66
2022/04/23 00:35:18;;;;;;;22.00;15.52;;;;;;;;;;5029550;28;20552;-65
2022/04/23 00:37:47;;;;;;;22.55;14.90;;;;;;;;;;5028582;28;20639;-66
2022/04/23 00:40:18;;;;;;;22.70;15.68;;;;;;;;;;5019050;28;20536;-66
2022/04/23 00:42:55;;;;;;;25.05;15.93;;;;;;;;;;5022896;28;20217;-66
2022/04/23 00:45:29;;;;;;;22.70;15.50;;;;;;;;;;5029170;28;20198;-66
2022/04/23 00:47:55;;;;;;;23.25;16.60;;;;;;;;;;5023771;28;20178;-66
2022/04/23 00:50:21;;;;;;;23.08;16.52;;;;;;;;;;5026851;28;20612;-66
2022/04/23 00:52:50;;;;;;;26.85;17.27;;;;;;;;;;5027328;28;20182;-66
2022/04/23 00:55:16;;;;;;;25.75;17.40;;;;;;;;;;5017801;28;20273;-66
2022/04/23 00:57:42;;;;;;;28.13;18.58;;;;;;;;;;5027429;28;20166;-66
2022/04/23 01:00:08;;;;;;;25.88;16.50;;;;;;;;;;5025259;28;20174;-66
2022/04/23 01:02:35;;;;;;;27.25;17.77;;;;;;;;;;5021726;28;20657;-66
2022/04/23 01:05:01;;;;;;;25.65;16.38;;;;;;;;;;5019317;28;20184;-66
2022/04/23 01:07:26;;;;;;;26.02;17.48;;;;;;;;;;5019223;28;20194;-66
2022/04/23 01:09:52;;;;;;;26.63;17.58;;;;;;;;;;5027149;28;20202;-66
2022/04/23 01:12:19;;;;;;;26.42;17.52;;;;;;;;;;5024340;28;20229;-66
2022/04/23 01:15:00;;;;;;;26.27;17.85;;;;;;;;;;5016330;28;20320;-65
2022/04/23 01:17:25;;;;;;;26.83;18.23;;;;;;;;;;5016622;28;20277;-65
2022/04/23 01:19:51;;;;;;;33.05;18.75;;;;;;;;;;5016031;28;20804;-66
2022/04/23 01:22:17;;;;;;;27.25;18.15;;;;;;;;;;5012176;28;20174;-67
2022/04/23 01:24:43;;;;;;;27.02;18.33;;;;;;;;;;5009735;28;20201;-66
2022/04/23 01:27:09;;;;;;;26.00;18.55;;;;;;;;;;5022246;28;20216;-66
2022/04/23 01:29:34;;;;;;;28.17;19.23;;;;;;;;;;5027720;28;20206;-66
2022/04/23 01:32:04;;;;;;;29.45;18.63;;;;;;;;;;5025237;28;20678;-66
2022/04/23 01:34:29;;;;;;;26.08;18.45;;;;;;;;;;5023102;28;20277;-64
2022/04/23 01:36:55;;;;;;;27.55;18.00;;;;;;;;;;5018669;28;20269;-65
2022/04/23 01:39:20;;;;;;;27.83;18.83;;;;;;;;;;5015985;28;20195;-65
2022/04/23 01:41:47;;;;;;;28.45;19.45;;;;;;;;;;5021946;28;20214;-66
2022/04/23 01:44:13;;;;;;;28.38;18.38;;;;;;;;;;5023736;28;20252;-66
2022/04/23 01:46:38;;;;;;;29.33;18.70;;;;;;;;;;5026595;28;20265;-66
2022/04/23 01:49:04;;;;;;;29.27;18.67;;;;;;;;;;5026378;28;20261;-66
2022/04/23 01:51:29;;;;;;;26.40;18.45;;;;;;;;;;5026949;28;20189;-66
2022/04/23 01:53:55;;;;;;;30.73;18.77;;;;;;;;;;5023542;28;20226;-65
2022/04/23 01:56:20;;;;;;;27.88;19.92;;;;;;;;;;5025849;28;20637;-65
2022/04/23 01:58:46;;;;;;;27.65;18.55;;;;;;;;;;5023158;28;20210;-65
2022/04/23 02:01:11;;;;;;;29.88;18.08;;;;;;;;;;5018805;28;20249;-66
2022/04/23 02:03:36;;;;;;;31.33;19.48;;;;;;;;;;5016439;28;20597;-66
2022/04/23 02:06:02;;;;;;;28.88;19.05;;;;;;;;;;5017583;28;20575;-66
2022/04/23 02:08:27;;;;;;;31.35;18.77;;;;;;;;;;5010260;28;20186;-66
2022/04/23 02:10:53;;;;;;;27.83;18.83;;;;;;;;;;5022151;28;20212;-66
2022/04/23 02:13:18;;;;;;;28.38;19.38;;;;;;;;;;5022105;28;20313;-66
2022/04/23 02:15:43;;;;;;;28.90;19.23;;;;;;;;;;5027027;28;20208;-66
2022/04/23 02:18:10;;;;;;;25.90;18.13;;;;;;;;;;5021920;28;20186;-66
2022/04/23 02:20:37;;;;;;;24.67;17.55;;;;;;;;;;5021933;28;20182;-66
2022/04/23 02:23:03;;;;;;;29.30;19.15;;;;;;;;;;5014284;28;20249;-66
2022/04/23 02:25:28;;;;;;;24.58;17.42;;;;;;;;;;5013374;28;20213;-66
2022/04/23 02:27:54;;;;;;;26.48;18.25;;;;;;;;;;5024875;28;20191;-66
2022/04/23 02:30:21;;;;;;;28.83;18.95;;;;;;;;;;5021637;28;20616;-66
2022/04/23 02:32:50;;;;;;;27.38;19.42;;;;;;;;;;5010836;28;20202;-65
2022/04/23 02:35:17;;;;;;;26.50;17.65;;;;;;;;;;5013443;28;20182;-65
2022/04/23 02:37:44;;;;;;;27.40;18.83;;;;;;;;;;5023408;28;20181;-65
2022/04/23 02:40:10;;;;;;;26.10;18.08;;;;;;;;;;5019523;28;20179;-65
2022/04/23 02:42:37;;;;;;;24.25;17.75;;;;;;;;;;5020661;28;20252;-66
2022/04/23 02:45:03;;;;;;;24.30;17.70;;;;;;;;;;5019368;28;20185;-66
2022/04/23 02:47:29;;;;;;;28.50;18.33;;;;;;;;;;5016339;28;20186;-66
2022/04/23 02:49:55;;;;;;;23.95;18.35;;;;;;;;;;5015337;28;20214;-66
2022/04/23 02:52:20;;;;;;;26.17;18.55;;;;;;;;;;5018445;28;20186;-66
2022/04/23 02:54:46;;;;;;;29.95;18.38;;;;;;;;;;5026017;28;20186;-65
2022/04/23 02:57:12;;;;;;;27.33;17.30;;;;;;;;;;5021312;28;20189;-66
2022/04/23 02:59:39;;;;;;;23.10;16.88;;;;;;;;;;5015250;28;20208;-66
2022/04/23 03:02:05;;;;;;;25.63;17.92;;;;;;;;;;5019017;28;20323;-66
2022/04/23 03:04:30;;;;;;;28.92;17.00;;;;;;;;;;5022455;28;20768;-66
2022/04/23 03:06:55;;;;;;;25.58;17.13;;;;;;;;;;5023699;28;20186;-66
2022/04/23 03:09:21;;;;;;;24.05;17.10;;;;;;;;;;5021058;28;20252;-66
2022/04/23 03:11:47;;;;;;;22.98;16.15;;;;;;;;;;5023289;28;20204;-66
2022/04/23 03:14:12;;;;;;;24.63;15.85;;;;;;;;;;5020532;28;20209;-66
2022/04/23 03:16:38;;;;;;;24.75;15.70;;;;;;;;;;5024193;28;20597;-66
2022/04/23 03:19:03;;;;;;;27.65;16.73;;;;;;;;;;5026613;28;20626;-66
2022/04/23 03:21:28;;;;;;;24.45;16.15;;;;;;;;;;5015494;28;20646;-66
2022/04/23 03:23:54;;;;;;;20.90;15.25;;;;;;;;;;5028412;28;20178;-66
2022/04/23 03:26:19;;;;;;;22.58;16.15;;;;;;;;;;5022621;28;20229;-66
2022/04/23 03:28:44;;;;;;;21.73;15.10;;;;;;;;;;5021730;28;20432;-65
2022/04/23 03:31:10;;;;;;;24.20;16.05;;;;;;;;;;5021684;28;20218;-65
2022/04/23 03:33:35;;;;;;;21.90;15.77;;;;;;;;;;5027522;28;20658;-65
2022/04/23 03:36:01;;;;;;;21.27;15.18;;;;;;;;;;5026546;28;20192;-65
2022/04/23 03:38:27;;;;;;;21.63;15.32;;;;;;;;;;5026485;28;20190;-66
2022/04/23 03:40:55;;;;;;;20.70;14.85;;;;;;;;;;5019714;28;20265;-65
2022/04/23 03:43:21;;;;;;;23.33;16.02;;;;;;;;;;5028999;28;20611;-66
2022/04/23 03:45:47;;;;;;;21.95;15.88;;;;;;;;;;5027570;28;20649;-66
2022/04/23 03:48:14;;;;;;;21.15;15.68;;;;;;;;;;5019664;28;20185;-66
2022/04/23 03:50:39;;;;;;;21.05;15.18;;;;;;;;;;5017408;28;20191;-66
2022/04/23 03:53:05;;;;;;;22.55;15.60;;;;;;;;;;5019699;28;20637;-66
2022/04/23 03:55:31;;;;;;;22.33;14.60;;;;;;;;;;5029156;28;20297;-66
2022/04/23 03:57:57;;;;;;;20.38;15.27;;;;;;;;;;5024744;28;20224;-66
2022/04/23 04:00:22;;;;;;;21.98;15.38;;;;;;;;;;5024701;28;20186;-66
2022/04/23 04:02:49;;;;;;;18.52;14.23;;;;;;;;;;5015154;28;20224;-66
2022/04/23 04:05:15;;;;;;;18.55;14.40;;;;;;;;;;5027259;28;20606;-65
2022/04/23 04:07:45;;;;;;;19.70;13.98;;;;;;;;;;5020485;28;20229;-65
2022/04/23 04:10:13;;;;;;;21.83;14.95;;;;;;;;;;5022942;28;20209;-66
2022/04/23 04:12:39;;;;;;;22.48;14.73;;;;;;;;;;5022994;28;20295;-65
2022/04/23 04:15:06;;;;;;;21.23;14.68;;;;;;;;;;5027012;28;20546;-64
2022/04/23 04:17:31;;;;;;;23.25;15.35;;;;;;;;;;5025467;28;20391;-65
2022/04/23 04:19:57;;;;;;;20.05;14.93;;;;;;;;;;5024438;28;20590;-65
2022/04/23 04:22:22;;;;;;;20.33;14.93;;;;;;;;;;5024850;28;20217;-65
2022/04/23 04:24:48;;;;;;;24.38;15.05;;;;;;;;;;5020159;28;20182;-66
2022/04/23 04:27:14;;;;;;;22.20;15.10;;;;;;;;;;5027105;28;20197;-66
2022/04/23 04:29:39;;;;;;;21.13;14.77;;;;;;;;;;5028406;28;20306;-64
2022/04/23 04:32:07;;;;;;;21.50;15.10;;;;;;;;;;5016890;28;20289;-65
2022/04/23 04:34:33;;;;;;;24.25;14.48;;;;;;;;;;5022375;28;20217;-64
2022/04/23 04:37:08;;;;;;;21.05;14.10;;;;;;;;;;5019709;28;20202;-65
2022/04/23 04:39:36;;;;;;;21.55;14.10;;;;;;;;;;5015954;28;20343;-65
2022/04/23 04:42:01;;;;;;;20.67;14.13;;;;;;;;;;5015527;28;20647;-65
2022/04/23 04:44:27;;;;;;;19.20;14.35;;;;;;;;;;5017931;28;20269;-65
2022/04/23 04:46:53;;;;;;;18.85;13.35;;;;;;;;;;5022820;28;20205;-65
2022/04/23 04:49:18;;;;;;;21.83;13.60;;;;;;;;;;5019991;28;20582;-66
2022/04/23 04:51:44;;;;;;;20.50;14.95;;;;;;;;;;5024845;28;20642;-65
2022/04/23 04:54:09;;;;;;;21.63;13.77;;;;;;;;;;5024864;28;20288;-66
2022/04/23 04:56:35;;;;;;;18.65;13.02;;;;;;;;;;5021463;28;20183;-65
2022/04/23 04:59:05;;;;;;;18.80;13.43;;;;;;;;;;5026998;28;20209;-65
2022/04/23 05:01:31;;;;;;;20.25;13.55;;;;;;;;;;5017225;28;20324;-65
2022/04/23 05:03:56;;;;;;;18.05;13.48;;;;;;;;;;5019262;28;20178;-65
2022/04/23 05:06:22;;;;;;;19.70;13.27;;;;;;;;;;5013807;28;20199;-65
2022/04/23 05:08:47;;;;;;;20.15;13.00;;;;;;;;;;5023258;28;20182;-65
2022/04/23 05:11:13;;;;;;;17.20;12.27;;;;;;;;;;5015309;28;20198;-65
2022/04/23 05:13:38;;;;;;;20.52;12.85;;;;;;;;;;5016903;28;20229;-65
2022/04/23 05:16:07;;;;;;;18.77;11.77;;;;;;;;;;5021063;28;20190;-65
2022/04/23 05:18:36;;;;;;;16.77;11.97;;;;;;;;;;5016740;28;20264;-65
2022/04/23 05:21:02;;;;;;;15.75;11.63;;;;;;;;;;5020072;28;20185;-65
2022/04/23 05:23:28;;;;;;;17.08;11.18;;;;;;;;;;5019389;28;20186;-65
2022/04/23 05:25:53;;;;;;;15.27;11.65;;;;;;;;;;5015259;28;20178;-65
2022/04/23 05:28:19;;;;;;;17.13;11.32;;;;;;;;;;5025011;28;20643;-65
2022/04/23 05:30:45;;;;;;;20.13;12.32;;;;;;;;;;5020904;28;20698;-65
2022/04/23 05:33:10;;;;;;;13.90;10.50;;;;;;;;;;5024559;28;20541;-65
2022/04/23 05:35:36;;;;;;;14.90;11.13;;;;;;;;;;5023426;28;20637;-66
2022/04/23 05:38:01;;;;;;;14.07;10.18;;;;;;;;;;5023511;28;20193;-66
2022/04/23 05:40:27;;;;;;;16.35;11.02;;;;;;;;;;5021927;28;20217;-66
2022/04/23 05:42:58;;;;;;;15.93;11.13;;;;;;;;;;5022053;28;20680;-65
2022/04/23 05:45:23;;;;;;;14.40;10.30;;;;;;;;;;5022495;28;20209;-66
2022/04/23 05:47:49;;;;;;;13.80;10.00;;;;;;;;;;5026747;28;20206;-66
2022/04/23 05:50:14;;;;;;;13.65;10.20;;;;;;;;;;5026117;28;20634;-66
2022/04/23 05:52:39;;;;;;;14.23;10.13;;;;;;;;;;5024587;28;20273;-66
2022/04/23 05:55:06;;;;;;;12.20;9.35;;;;;;;;;;5024963;28;20186;-66
2022/04/23 05:57:32;;;;;;;12.18;8.38;;;;;;;;;;5023048;28;20255;-66
2022/04/23 05:59:57;;;;;;;15.07;9.10;;;;;;;;;;5024802;28;20174;-66
2022/04/23 06:02:22;;;;;;;12.75;8.93;;;;;;;;;;5023033;28;20205;-66
2022/04/23 06:04:49;;;;;;;13.82;8.82;;;;;;;;;;5026201;28;20189;-65
2022/04/23 06:07:18;;;;;;;11.40;8.75;;;;;;;;;;5027074;28;20293;-67
2022/04/23 06:09:44;;;;;;;12.63;8.35;;;;;;;;;;5025377;28;20214;-65
2022/04/23 06:12:09;;;;;;;11.40;8.38;;;;;;;;;;5023553;28;20232;-66
2022/04/23 06:14:34;;;;;;;12.50;8.65;;;;;;;;;;5024563;28;20598;-65
2022/04/23 06:17:00;;;;;;;12.00;8.65;;;;;;;;;;5025396;28;20186;-66
2022/04/23 06:19:25;;;;;;;11.45;8.38;;;;;;;;;;5020276;28;20185;-66
2022/04/23 06:21:51;;;;;;;14.43;8.68;;;;;;;;;;5024185;28;20198;-66
2022/04/23 06:24:16;;;;;;;15.20;8.30;;;;;;;;;;5022628;28;20217;-66
2022/04/23 06:26:42;;;;;;;11.90;8.40;;;;;;;;;;5023744;28;20178;-66
2022/04/23 06:29:07;;;;;;;14.52;9.05;;;;;;;;;;5027283;28;20437;-66
2022/04/23 06:31:32;;;;;;;11.57;8.30;;;;;;;;;;5026523;28;20277;-66
2022/04/23 06:33:58;;;;;;;15.60;8.80;;;;;;;;;;5020398;28;20182;-66
2022/04/23 06:36:23;;;;;;;12.68;8.57;;;;;;;;;;5024791;28;20219;-66
2022/04/23 06:38:48;;;;;;;12.98;7.97;;;;;;;;;;5022642;28;20285;-66
2022/04/23 06:41:14;;;;;;;11.55;8.10;;;;;;;;;;5025054;28;20178;-66
2022/04/23 06:43:39;;;;;;;12.63;7.82;;;;;;;;;;5024724;28;20190;-66
2022/04/23 06:46:04;;;;;;;13.23;8.70;;;;;;;;;;5024950;28;20178;-66
2022/04/23 06:48:30;;;;;;;11.27;8.25;;;;;;;;;;5024204;28;20186;-66
2022/04/23 06:50:55;;;;;;;10.90;7.50;;;;;;;;;;5023580;28;20673;-66
2022/04/23 06:53:20;;;;;;;12.90;8.50;;;;;;;;;;5023856;28;20190;-65
2022/04/23 06:55:45;;;;;;;12.30;8.38;;;;;;;;;;5025023;28;20174;-66
2022/04/23 06:58:11;;;;;;;10.60;8.43;;;;;;;;;;5024552;28;20573;-65
2022/04/23 07:00:41;;;;;;;14.30;8.07;;;;;;;;;;5024789;28;20186;-66
2022/04/23 07:03:07;;;;;;;13.00;8.80;;;;;;;;;;5024608;28;20189;-66
2022/04/23 07:05:33;;;;;;;12.05;8.38;;;;;;;;;;5025414;28;20268;-66
2022/04/23 07:08:01;;;;;;;11.68;8.38;;;;;;;;;;5025593;28;20292;-66
2022/04/23 07:10:29;;;;;;;14.27;8.98;;;;;;;;;;5025268;28;20571;-65
2022/04/23 07:12:55;;;;;;;12.38;8.68;;;;;;;;;;5022842;28;20229;-66
2022/04/23 07:15:22;;;;;;;11.55;8.25;;;;;;;;;;5021289;28;20240;-66
2022/04/23 07:17:48;;;;;;;11.13;8.73;;;;;;;;;;5021770;28;20268;-66
2022/04/23 07:20:14;;;;;;;11.40;8.77;;;;;;;;;;5022476;28;20178;-66
2022/04/23 07:22:39;;;;;;;15.32;9.00;;;;;;;;;;5020187;28;20178;-66
2022/04/23 07:25:08;;;;;;;21.42;9.85;;;;;;;;;;5020942;28;20189;-66
2022/04/23 07:27:33;;;;;;;14.50;9.52;;;;;;;;;;5018545;28;20289;-66
2022/04/23 07:29:59;;;;;;;13.43;9.20;;;;;;;;;;5024969;28;20234;-65
2022/04/23 07:32:25;;;;;;;14.48;9.15;;;;;;;;;;5024435;28;20209;-65
2022/04/23 07:37:35;;;;;;;12.50;9.20;;;;;;;;;;5016629;28;20196;-66
2022/04/23 07:40:05;;;;;;;13.95;9.65;;;;;;;;;;5019465;28;20264;-66
2022/04/23 07:42:31;;;;;;;15.45;9.30;;;;;;;;;;5017685;28;20178;-65
2022/04/23 07:44:58;;;;;;;14.77;9.68;;;;;;;;;;5025044;28;20171;-66
2022/04/23 07:47:24;;;;;;;14.90;9.63;;;;;;;;;;5025722;28;20189;-66
2022/04/23 07:49:50;;;;;;;13.00;9.35;;;;;;;;;;5024912;28;20277;-66
2022/04/23 07:52:16;;;;;;;14.85;10.57;;;;;;;;;;5026105;28;20663;-66
2022/04/23 07:54:43;;;;;;;12.65;9.25;;;;;;;;;;5025292;28;20190;-67
2022/04/23 07:57:09;;;;;;;14.48;10.07;;;;;;;;;;5030040;28;20217;-66
2022/04/23 07:59:38;;;;;;;14.15;9.75;;;;;;;;;;5028715;28;20182;-66
2022/04/23 08:02:03;;;;;;;14.38;9.35;;;;;;;;;;5027707;28;20185;-66
2022/04/23 08:04:29;;;;;;;15.80;9.90;;;;;;;;;;5027224;28;20297;-67
2022/04/23 08:06:54;;;;;;;15.93;10.30;;;;;;;;;;5021676;28;20176;-66
2022/04/23 08:09:19;;;;;;;14.73;10.45;;;;;;;;;;5025387;28;20642;-66
2022/04/23 08:11:45;;;;;;;15.45;9.90;;;;;;;;;;5023505;28;20190;-66
2022/04/23 08:14:10;;;;;;;12.95;9.63;;;;;;;;;;5019098;28;20230;-66
2022/04/23 08:16:35;;;;;;;17.25;10.48;;;;;;;;;;5026881;28;20178;-66
2022/04/23 08:19:01;;;;;;;17.02;10.98;;;;;;;;;;5023095;28;20569;-67
2022/04/23 08:21:26;;;;;;;15.25;11.40;;;;;;;;;;5025994;28;20538;-66
2022/04/23 08:23:51;;;;;;;14.65;11.25;;;;;;;;;;5021367;28;20467;-66
2022/04/23 08:26:17;;;;;;;19.58;12.45;;;;;;;;;;5024624;28;20198;-66
2022/04/23 08:31:27;;;;;;;16.30;11.90;;;;;;;;;;5020611;28;20283;-66
2022/04/23 08:33:58;;;;;;;19.42;12.50;;;;;;;;;;5019520;28;20182;-65
2022/04/23 08:36:23;;;;;;;18.52;11.82;;;;;;;;;;5028605;28;20638;-66
2022/04/23 08:38:49;;;;;;;19.98;13.15;;;;;;;;;;5018740;28;20217;-66
2022/04/23 08:41:14;;;;;;;24.25;12.65;;;;;;;;;;5027602;28;20182;-66
2022/04/23 08:43:43;;;;;;;19.08;13.52;;;;;;;;;;5020328;28;20264;-66
2022/04/23 08:46:09;;;;;;;20.77;13.13;;;;;;;;;;5026811;28;20297;-66
2022/04/23 08:48:38;;;;;;;20.30;13.02;;;;;;;;;;5028021;28;20189;-66
2022/04/23 08:51:10;;;;;;;20.42;13.02;;;;;;;;;;5014126;28;20523;-66
2022/04/23 08:53:40;;;;;;;23.48;13.48;;;;;;;;;;5020011;28;20182;-66
2022/04/23 08:56:07;;;;;;;19.13;12.95;;;;;;;;;;5029376;28;20175;-67
2022/04/23 08:58:32;;;;;;;19.35;12.52;;;;;;;;;;5024580;28;20194;-65
2022/04/23 09:00:58;;;;;;;18.35;13.23;;;;;;;;;;5022647;28;20190;-66
2022/04/23 09:03:23;;;;;;;19.75;13.20;;;;;;;;;;5021526;28;20189;-66
2022/04/23 09:05:53;;;;;;;18.67;12.73;;;;;;;;;;5029572;28;20190;-66
2022/04/23 09:08:18;;;;;;;19.23;12.27;;;;;;;;;;5027017;28;20179;-66
2022/04/23 09:10:51;;;;;;;17.63;12.43;;;;;;;;;;5021957;28;20584;-66
2022/04/23 09:13:32;;;;;;;18.45;12.23;;;;;;;;;;5020932;28;20600;-67
2022/04/23 09:24:45;;;;;;;19.17;13.18;;;;;;;;;;5025157;28;20184;-67
2022/04/23 09:27:11;;;;;;;18.25;12.13;;;;;;;;;;5019496;28;20221;-66
2022/04/23 09:29:37;;;;;;;19.88;12.60;;;;;;;;;;5014404;28;20222;-66
2022/04/23 09:32:09;;;;;;;17.30;12.07;;;;;;;;;;5023739;28;20225;-66
2022/04/23 09:34:35;;;;;;;15.90;12.15;;;;;;;;;;5018824;28;20186;-66
2022/04/23 09:37:00;;;;;;;18.25;12.55;;;;;;;;;;5025631;28;20197;-66
2022/04/23 09:39:36;;;;;;;19.67;13.00;;;;;;;;;;5022191;28;20182;-66
2022/04/23 09:42:18;;;;;;;19.67;13.40;;;;;;;;;;5026472;28;20280;-65
2022/04/23 09:44:44;;;;;;;18.95;12.82;;;;;;;;;;5027184;28;20727;-65
2022/04/23 09:47:10;;;;;;;19.00;12.05;;;;;;;;;;5026273;28;20178;-65
2022/04/23 09:49:36;;;;;;;17.40;11.90;;;;;;;;;;5026008;28;20213;-67
2022/04/23 09:52:04;;;;;;;16.95;11.40;;;;;;;;;;5027193;28;20281;-66
2022/04/23 09:54:31;;;;;;;20.33;12.68;;;;;;;;;;5021136;28;20659;-66
2022/04/23 09:56:57;;;;;;;23.55;13.43;;;;;;;;;;5023371;28;20456;-66
2022/04/23 09:59:23;;;;;;;19.83;12.57;;;;;;;;;;5020668;28;20186;-65
2022/04/23 10:01:49;;;;;;;21.58;13.50;;;;;;;;;;5021428;28;20637;-65
2022/04/23 10:04:21;;;;;;;17.30;12.52;;;;;;;;;;5022591;28;20213;-65
2022/04/23 10:06:51;;;;;;;21.85;13.93;;;;;;;;;;5025807;28;20192;-65
2022/04/23 10:09:19;;;;;;;19.20;13.00;;;;;;;;;;5023517;28;20174;-65
2022/04/23 10:11:49;;;;;;;23.55;13.80;;;;;;;;;;5017499;28;20188;-65
2022/04/23 10:14:22;;;;;;;21.17;12.75;;;;;;;;;;5017855;28;20194;-65
2022/04/23 10:16:48;;;;;;;18.67;12.88;;;;;;;;;;5021150;28;20194;-66
2022/04/23 10:19:14;;;;;;;20.95;13.25;;;;;;;;;;5022228;28;20266;-66
2022/04/23 10:22:02;;;;;;;16.98;12.57;;;;;;;;;;5016021;28;20273;-66
2022/04/23 10:24:36;;;;;;;18.40;11.90;;;;;;;;;;5022225;28;20181;-65
2022/04/23 10:27:09;;;;;;;18.70;12.70;;;;;;;;;;5020823;28;20219;-66
2022/04/23 10:29:36;;;;;;;20.30;11.82;;;;;;;;;;5019743;28;20202;-65
2022/04/23 10:32:10;;;;;;;16.80;11.70;;;;;;;;;;5019529;28;20316;-65
2022/04/23 10:34:36;;;;;;;16.35;11.98;;;;;;;;;;5023682;28;20209;-65
2022/04/23 10:37:24;;;;;;;17.25;12.20;;;;;;;;;;5023618;28;20711;-65
2022/04/23 10:39:52;;;;;;;16.17;11.27;;;;;;;;;;5017963;28;20183;-65
2022/04/23 10:42:22;;;;;;;18.88;11.98;;;;;;;;;;5022448;28;20220;-65
2022/04/23 10:44:49;;;;;;;17.10;12.38;;;;;;;;;;5019515;28;20177;-65
2022/04/23 10:47:28;;;;;;;15.63;11.73;;;;;;;;;;5022632;28;20182;-65
2022/04/23 10:50:18;;;;;;;15.85;11.38;;;;;;;;;;5022556;28;20206;-66
2022/04/23 10:52:45;;;;;;;15.10;10.93;;;;;;;;;;5020211;28;20190;-65
2022/04/23 10:55:14;;;;;;;16.13;11.70;;;;;;;;;;5019619;28;20206;-65
2022/04/23 10:57:46;;;;;;;16.85;11.65;;;;;;;;;;5017170;28;20271;-65
2022/04/23 11:00:15;;;;;;;15.85;11.45;;;;;;;;;;5021339;28;20232;-66
2022/04/23 11:02:41;;;;;;;15.27;11.35;;;;;;;;;;5019382;28;20193;-65
2022/04/23 11:14:37;;;;;;;14.68;10.85;;;;;;;;;;5021046;28;20608;-64
2022/04/23 11:17:02;;;;;;;20.58;11.27;;;;;;;;;;5022795;28;20661;-65
2022/04/23 11:19:29;;;;;;;17.55;10.63;;;;;;;;;;5022612;28;20213;-65
2022/04/23 11:21:55;;;;;;;14.85;10.30;;;;;;;;;;5020974;28;20201;-64
2022/04/23 11:24:22;;;;;;;16.58;11.48;;;;;;;;;;5021681;28;20194;-64
2022/04/23 11:26:49;;;;;;;13.65;10.65;;;;;;;;;;5022200;28;20182;-64
2022/04/23 11:29:17;;;;;;;14.50;10.55;;;;;;;;;;5024717;28;20421;-65
2022/04/23 11:31:56;;;;;;;16.50;10.90;;;;;;;;;;5027781;28;20205;-65
2022/04/23 11:34:22;;;;;;;16.38;10.50;;;;;;;;;;5026227;28;20189;-64
2022/04/23 11:36:48;;;;;;;14.90;10.95;;;;;;;;;;5028022;28;20181;-65
2022/04/23 11:39:13;;;;;;;14.30;10.27;;;;;;;;;;5025897;28;20656;-65
2022/04/23 11:41:47;;;;;;;15.48;10.75;;;;;;;;;;5029164;28;20232;-65
2022/04/23 11:44:45;;;;;;;12.98;10.70;;;;;;;;;;5026173;28;20649;-65
2022/04/23 11:47:09;;;;;;;14.45;10.27;;;;;;;;;;5026352;28;20190;-65
2022/04/23 11:49:34;;;;;;;17.05;10.70;;;;;;;;;;5025715;28;20752;-65
2022/04/23 11:52:05;;;;;;;13.20;10.50;;;;;;;;;;5025567;28;20265;-65
2022/04/23 11:54:42;;;;;;;13.32;10.35;;;;;;;;;;5025378;28;21390;-65
2022/04/23 11:57:12;;;;;;;13.30;10.30;;;;;;;;;;5025159;28;20199;-65
2022/04/23 11:59:49;;;;;;;13.57;9.90;;;;;;;;;;5025454;28;20727;-66
2022/04/23 12:02:17;;;;;;;14.30;11.05;;;;;;;;;;5026415;28;20197;-69
2022/04/23 12:04:44;;;;;;;13.43;10.10;;;;;;;;;;5026546;28;20193;-66
2022/04/23 12:07:10;;;;;;;16.73;10.68;;;;;;;;;;5027537;28;20186;-65
2022/04/23 12:09:52;;;;;;;13.20;9.68;;;;;;;;;;5026466;28;20236;-66
2022/04/23 12:12:20;;;;;;;13.77;10.25;;;;;;;;;;5027549;28;21171;-65
2022/04/23 12:14:47;;;;;;;12.80;10.35;;;;;;;;;;5025073;28;20186;-65
2022/04/23 12:17:23;;;;;;;14.13;10.50;;;;;;;;;;5028398;28;20190;-65
2022/04/23 12:19:56;;;;;;;13.48;10.13;;;;;;;;;;5028521;28;20170;-65
2022/04/23 12:22:29;;;;;;;13.35;10.07;;;;;;;;;;5026618;28;20197;-65
2022/04/23 12:25:10;;;;;;;13.43;10.05;;;;;;;;;;5028349;28;20474;-65
2022/04/23 12:27:54;;;;;;;10.50;8.85;;;;;;;;;;5024658;28;20182;-65
2022/04/23 12:41:58;;;;;;;12.35;9.32;;;;;;;;;;5026911;28;20240;-66
2022/04/23 12:44:25;;;;;;;13.00;9.07;;;;;;;;;;5024984;28;20651;-66
2022/04/23 12:46:55;;;;;;;12.27;10.25;;;;;;;;;;5026225;28;20186;-66
2022/04/23 12:49:22;;;;;;;13.00;8.95;;;;;;;;;;5014304;28;20209;-65
2022/04/23 12:51:54;;;;;;;11.25;8.88;;;;;;;;;;5014584;28;20680;-66
2022/04/23 12:54:21;;;;;;;12.52;9.65;;;;;;;;;;5024047;28;20693;-66
2022/04/23 12:56:48;;;;;;;12.63;9.65;;;;;;;;;;5025262;28;20299;-66
2022/04/23 12:59:14;;;;;;;12.80;10.00;;;;;;;;;;5014848;28;20201;-66
2022/04/23 13:01:39;;;;;;;12.15;9.02;;;;;;;;;;5026128;28;20186;-70
2022/04/23 13:04:08;;;;;;;11.88;9.35;;;;;;;;;;5019364;28;20244;-66
2022/04/23 13:09:17;;;;;;;10.65;8.77;;;;;;;;;;5025448;28;20193;-67
2022/04/23 13:11:42;;;;;;;14.43;8.88;;;;;;;;;;5025300;28;20174;-66
2022/04/23 13:14:08;;;;;;;12.15;8.70;;;;;;;;;;5024340;28;20446;-66
2022/04/23 13:16:36;;;;;;;11.98;7.82;;;;;;;;;;5026203;28;20191;-66
2022/04/23 13:19:04;;;;;;;10.02;8.30;;;;;;;;;;5027566;28;20205;-66
2022/04/23 13:21:32;;;;;;;10.00;7.88;;;;;;;;;;5027772;28;20181;-66
2022/04/23 13:23:58;;;;;;;10.93;7.85;;;;;;;;;;5024622;28;20273;-66
2022/04/23 13:26:29;;;;;;;9.48;7.65;;;;;;;;;;5028282;28;20198;-66
2022/04/23 13:28:55;;;;;;;12.57;8.43;;;;;;;;;;5025063;28;20886;-66
2022/04/23 13:31:20;;;;;;;10.25;7.50;;;;;;;;;;5027107;28;20217;-66
2022/04/23 13:33:47;;;;;;;10.85;7.43;;;;;;;;;;5026635;28;20178;-66
2022/04/23 13:36:12;;;;;;;10.75;7.90;;;;;;;;;;5025464;28;20532;-66
2022/04/23 13:38:38;;;;;;;13.05;7.97;;;;;;;;;;5024966;28;20212;-66
2022/04/23 13:41:05;;;;;;;9.27;7.55;;;;;;;;;;5024828;28;20197;-66
2022/04/23 13:43:31;;;;;;;11.55;8.45;;;;;;;;;;5028413;28;20209;-66
2022/04/23 13:45:57;;;;;;;12.60;8.40;;;;;;;;;;5023908;28;20210;-65
2022/04/23 13:48:26;;;;;;;10.02;7.57;;;;;;;;;;5027657;28;20182;-65
2022/04/23 13:50:52;;;;;;;9.50;7.43;;;;;;;;;;5026557;28;20276;-67
2022/04/23 13:53:17;;;;;;;8.77;7.70;;;;;;;;;;5026576;28;20186;-65
2022/04/23 13:55:42;;;;;;;11.73;7.65;;;;;;;;;;5026593;28;20228;-65
2022/04/23 13:58:08;;;;;;;10.02;7.07;;;;;;;;;;5026691;28;20540;-65
2022/04/23 14:00:33;;;;;;;10.30;7.63;;;;;;;;;;5025280;28;20186;-67
2022/04/23 14:11:10;;;;;;;9.43;5.95;;;;;;;;;;5025150;28;20779;-66
2022/04/23 14:13:36;;;;;;;7.53;6.50;;;;;;;;;;5025219;28;20241;-65
2022/04/23 14:16:01;;;;;;;7.50;6.13;;;;;;;;;;5025086;28;20268;-65
2022/04/23 14:18:27;;;;;;;8.60;5.80;;;;;;;;;;5024223;28;20264;-65
2022/04/23 14:20:52;;;;;;;9.57;6.40;;;;;;;;;;5023256;28;20568;-65
2022/04/23 14:23:17;;;;;;;7.70;5.75;;;;;;;;;;5025742;28;20193;-66
2022/04/23 14:25:44;;;;;;;6.38;5.28;;;;;;;;;;5021085;28;20266;-66
2022/04/23 14:28:09;;;;;;;7.78;5.57;;;;;;;;;;5026396;28;20248;-66
2022/04/23 14:30:36;;;;;;;7.45;5.22;;;;;;;;;;5024070;28;20603;-66
2022/04/23 14:33:02;;;;;;;6.70;5.00;;;;;;;;;;5026073;28;20190;-66
2022/04/23 14:35:27;;;;;;;6.82;5.95;;;;;;;;;;5024520;28;20206;-66
2022/04/23 14:37:52;;;;;;;6.95;5.80;;;;;;;;;;5024846;28;20174;-66
2022/04/23 14:40:18;;;;;;;8.93;6.40;;;;;;;;;;5027136;28;20178;-66
2022/04/23 14:42:44;;;;;;;7.10;5.85;;;;;;;;;;5025875;28;20580;-66
2022/04/23 14:45:12;;;;;;;7.35;5.53;;;;;;;;;;5026556;28;20335;-65
2022/04/23 14:47:37;;;;;;;5.75;4.80;;;;;;;;;;5024778;28;20276;-65
2022/04/23 14:50:03;;;;;;;7.57;5.65;;;;;;;;;;5025749;28;20748;-66
2022/04/23 14:55:12;;;;;;;9.18;5.45;;;;;;;;;;5027386;28;20201;-66
2022/04/23 14:57:38;;;;;;;7.15;5.38;;;;;;;;;;5024976;28;20547;-66
2022/04/23 15:00:04;;;;;;;6.18;5.28;;;;;;;;;;5024751;28;20189;-66
2022/04/23 15:02:31;;;;;;;6.22;5.50;;;;;;;;;;5025411;28;20871;-65
2022/04/23 15:04:57;;;;;;;6.93;5.45;;;;;;;;;;5024208;28;20174;-65
2022/04/23 15:07:24;;;;;;;7.00;4.97;;;;;;;;;;5020664;28;20213;-65
2022/04/23 15:09:50;;;;;;;7.53;5.07;;;;;;;;;;5027479;28;20232;-67